Halls Flying Ranch Airport


Codes: 0GA0/
Name: Halls Flying Ranch Airport
City: Hampton
Country: United States
Elevation: 800 ft.

Photos at Halls Flying Ranch Airport


   Photos courtesy of SpottingLog. You can add your own sightings and photos by signing up for a free trial today.



No photos found.

Weather at Halls Flying Ranch Airport


Time (UTC)DescriptionTempratureWindCloud coverageVisibilityPressureHumidity
16-Jun-2024 03:00Overcast Clouds27°C4 mph, W99%10000m1015hPa67%
16-Jun-2024 06:00Light Rain26°C2 mph, E100%10000m1016hPa71%
16-Jun-2024 09:00Broken Clouds22°C4 mph, SE64%10000m1016hPa85%
16-Jun-2024 12:00Scattered Clouds24°C4 mph, E31%10000m1018hPa75%
16-Jun-2024 15:00Clear Sky31°C7 mph, SE1%10000m1018hPa48%
16-Jun-2024 18:00Clear Sky35°C7 mph, SE10%10000m1017hPa34%
16-Jun-2024 21:00Overcast Clouds31°C4 mph, SE97%10000m1016hPa43%
17-Jun-2024 00:00Overcast Clouds29°C4 mph, SE92%10000m1016hPa51%
17-Jun-2024 03:00Overcast Clouds25°C4 mph, SE99%10000m1018hPa63%
17-Jun-2024 06:00Broken Clouds24°C7 mph, SE83%10000m1019hPa69%
17-Jun-2024 09:00Clear Sky21°C7 mph, E1%10000m1020hPa83%
17-Jun-2024 12:00Few Clouds23°C7 mph, SE15%10000m1021hPa82%
17-Jun-2024 15:00Overcast Clouds29°C9 mph, SE91%10000m1020hPa56%
17-Jun-2024 18:00Overcast Clouds33°C11 mph, SE94%10000m1019hPa39%
17-Jun-2024 21:00Overcast Clouds33°C11 mph, SE93%10000m1017hPa34%
18-Jun-2024 00:00Overcast Clouds29°C9 mph, E96%10000m1018hPa49%
18-Jun-2024 03:00Overcast Clouds25°C7 mph, SE98%10000m1019hPa59%
18-Jun-2024 06:00Overcast Clouds22°C7 mph, SE98%10000m1020hPa61%
18-Jun-2024 09:00Broken Clouds19°C7 mph, E68%10000m1020hPa79%
18-Jun-2024 12:00Broken Clouds20°C9 mph, E84%10000m1021hPa87%
18-Jun-2024 15:00Overcast Clouds26°C11 mph, E100%10000m1021hPa56%
18-Jun-2024 18:00Overcast Clouds30°C11 mph, E100%10000m1019hPa30%
18-Jun-2024 21:00Overcast Clouds31°C11 mph, E100%10000m1018hPa31%
19-Jun-2024 00:00Overcast Clouds26°C4 mph, E100%10000m1019hPa52%
19-Jun-2024 03:00Overcast Clouds23°C4 mph, E100%10000m1020hPa58%
19-Jun-2024 06:00Overcast Clouds22°C7 mph, SE100%10000m1021hPa68%
19-Jun-2024 09:00Overcast Clouds19°C7 mph, E100%10000m1021hPa81%
19-Jun-2024 12:00Overcast Clouds20°C7 mph, E100%10000m1023hPa81%
19-Jun-2024 15:00Overcast Clouds25°C11 mph, E100%10000m1023hPa59%
19-Jun-2024 18:00Overcast Clouds29°C11 mph, E100%10000m1022hPa43%
19-Jun-2024 21:00Overcast Clouds30°C11 mph, E96%10000m1020hPa42%
20-Jun-2024 00:00Overcast Clouds28°C9 mph, E98%10000m1020hPa48%
20-Jun-2024 03:00Broken Clouds23°C7 mph, E72%10000m1021hPa58%
20-Jun-2024 06:00Broken Clouds20°C4 mph, SE73%10000m1022hPa74%
20-Jun-2024 09:00Clear Sky18°C4 mph, NE3%10000m1023hPa88%
20-Jun-2024 12:00Clear Sky20°C9 mph, NE2%10000m1024hPa74%
20-Jun-2024 15:00Clear Sky26°C13 mph, E0%10000m1024hPa46%
20-Jun-2024 18:00Clear Sky30°C11 mph, E0%10000m1022hPa40%
20-Jun-2024 21:00Broken Clouds30°C11 mph, E78%10000m1021hPa47%
21-Jun-2024 00:00Overcast Clouds27°C11 mph, E85%10000m1020hPa56%